Algiers, Louisiana
Current Conditions -  °F | °C
As of 2:35 PM on Sunday 25 Jan 2015 (Local Time) from KVSH Reporting Station
Clear Clear  
Wind Chill: 19°   Ceiling: Unl
Heat Index: 19°   Visibility: 10mi
Dew Point:   Wind: 15mph
Humidity: 35%   Direction: 210°SSW
Pressure: 29.93"   Gusts: 22mph
Location:  29.935°N, 90.0314°W
Report Text: KVSH 252035Z AUTO 21013G19KT 10SM CLR 19/03 A2993 RMK AO1
Loading
Personal Weather Stations






























Interactive Weather Map New forecast layout! Learn more

10-Day Weather Forecast

Advertisements
Track Severe Weather on mobile